首页
METAR-TAF:

METAR-TAF

机场 :

Bad Vöslau

巴特弗斯勞, 奥地利

纬度: 47-57-52N, 经度: 016-15-34E, 海拔: 233米

当前天气观测

该预报发布于20分钟前的16:00 UTC
风速2节,风向多变
温度 11°C
湿度 62%
气压
能见度10公里或以上
1500米以下无云,无积雨云

METAR: LOAV 171600Z VRB02KT CAVOK 11/04

时间: 17:20 (16:20 UTC)

预报

该预报发布于4小时和55分钟前的11:25 UTC
预报有效从17日的 12点(UTC)到 17日的 21点(UTC)
风速2节,风向多变
能见度10公里或以上
1500米以下无云,无积雨云

TAF: LOAV 171125Z 1712/1721 VRB02KT CAVOK

超过4000个机场的气象观测和天气预报(METAR&TAF报告)。

可查询的气象台以黄色和红色小点在地图上表示。

将鼠标移到小点上方,可查看气象台名称。

然后点击查看天气观测和预报。

如需切换地图:点击带黑十字的绿色按钮放大地图;点击带横线的绿色按钮缩小地图;或者点击绿色箭头查看邻近地区的地图。


METAR-TAF: